createdAt,value
2019-01-11T00:01:27.961Z,101293.00
2019-01-11T00:03:58.870Z,101305.00
2019-01-11T00:06:29.986Z,101290.00
2019-01-11T00:09:01.106Z,101288.00
2019-01-11T00:11:33.710Z,101286.00
2019-01-11T00:14:05.123Z,101285.00
2019-01-11T00:16:36.219Z,101275.00
2019-01-11T00:19:07.828Z,101274.00
2019-01-11T00:21:38.831Z,101270.00
2019-01-11T00:24:11.358Z,101272.00
2019-01-11T00:27:15.321Z,101278.00
2019-01-11T00:29:46.542Z,101269.00
2019-01-11T00:32:17.520Z,101264.00
2019-01-11T00:34:48.754Z,101266.00
2019-01-11T00:37:28.236Z,101261.00
2019-01-11T00:40:28.928Z,101254.00
2019-01-11T00:43:01.445Z,101259.00
2019-01-11T00:45:48.069Z,101255.00
2019-01-11T00:48:28.873Z,101261.00
2019-01-11T00:51:00.023Z,101259.00
2019-01-11T00:53:31.224Z,101255.00
2019-01-11T00:56:02.361Z,101249.00
2019-01-11T00:58:40.213Z,101242.00
2019-01-11T01:01:11.517Z,101231.00
2019-01-11T01:03:42.781Z,101239.00
2019-01-11T01:06:14.032Z,101223.00
2019-01-11T01:09:05.361Z,101229.00
2019-01-11T01:11:44.511Z,101226.00
2019-01-11T01:14:22.341Z,101230.00
2019-01-11T01:16:53.436Z,101228.00
2019-01-11T01:19:24.663Z,101215.00
2019-01-11T01:21:55.983Z,101207.00
2019-01-11T01:25:02.536Z,101210.00
2019-01-11T01:27:33.856Z,101204.00
2019-01-11T01:30:10.957Z,101204.00
2019-01-11T01:32:45.749Z,101206.00
2019-01-11T01:35:17.157Z,101197.00
2019-01-11T01:37:48.349Z,101194.00
2019-01-11T01:40:20.171Z,101195.00
2019-01-11T01:43:02.517Z,101188.00
2019-01-11T01:45:33.669Z,101188.00
2019-01-11T01:48:09.280Z,101186.00
2019-01-11T01:51:19.571Z,101180.00
2019-01-11T01:54:15.263Z,101185.00
2019-01-11T01:56:49.479Z,101095.00
2019-01-11T01:59:20.752Z,101184.00
2019-01-11T02:02:38.669Z,101176.00
2019-01-11T02:05:11.961Z,101173.00
2019-01-11T02:07:43.218Z,101176.00
2019-01-11T02:10:15.188Z,101173.00
2019-01-11T02:12:46.602Z,101161.00
2019-01-11T02:15:34.966Z,101162.00
2019-01-11T02:18:41.390Z,101158.00
2019-01-11T02:21:13.697Z,101157.00
2019-01-11T02:24:04.152Z,101148.00
2019-01-11T02:26:36.377Z,101155.00
2019-01-11T02:29:07.497Z,101152.00
2019-01-11T02:31:41.930Z,101155.00
2019-01-11T02:34:14.186Z,101136.00
2019-01-11T02:36:45.245Z,101143.00
2019-01-11T02:39:16.759Z,101132.00
2019-01-11T02:42:03.759Z,101144.00
2019-01-11T02:44:35.211Z,101129.00
2019-01-11T02:47:06.513Z,101133.00
2019-01-11T02:49:45.499Z,101130.00
2019-01-11T02:52:33.175Z,101134.00
2019-01-11T02:55:04.592Z,101135.00
2019-01-11T02:57:35.652Z,101139.00
2019-01-11T03:00:17.818Z,101140.00
2019-01-11T03:02:50.330Z,101136.00
2019-01-11T03:05:50.661Z,101126.00
2019-01-11T03:08:37.594Z,101130.00
2019-01-11T03:11:11.437Z,101133.00
2019-01-11T03:13:42.551Z,101140.00
2019-01-11T03:16:13.604Z,101141.00
2019-01-11T03:18:44.545Z,101127.00
2019-01-11T03:21:18.455Z,101128.00
2019-01-11T03:23:52.153Z,101128.00
2019-01-11T03:26:31.599Z,101109.00
2019-01-11T03:29:03.771Z,101108.00
2019-01-11T03:31:37.596Z,101095.00
2019-01-11T03:34:09.455Z,101102.00
2019-01-11T03:36:44.549Z,101092.00
2019-01-11T03:39:29.751Z,101093.00
2019-01-11T03:42:12.166Z,101095.00
2019-01-11T03:44:48.070Z,101077.00
2019-01-11T03:47:32.515Z,101084.00
2019-01-11T03:50:04.128Z,101079.00
2019-01-11T03:52:46.341Z,101066.00
2019-01-11T03:55:18.162Z,101059.00
2019-01-11T03:57:49.687Z,101064.00
2019-01-11T04:00:23.761Z,101054.00
2019-01-11T04:02:54.884Z,101050.00
2019-01-11T04:05:28.557Z,101060.00
2019-01-11T04:08:06.281Z,101052.00
2019-01-11T04:10:37.551Z,101054.00
2019-01-11T04:13:14.976Z,101045.00
2019-01-11T04:15:46.236Z,101049.00
2019-01-11T04:18:37.287Z,101037.00
2019-01-11T04:21:08.424Z,101038.00
2019-01-11T04:23:48.534Z,101038.00
2019-01-11T04:26:20.388Z,101044.00
2019-01-11T04:29:01.882Z,101031.00
2019-01-11T04:31:36.774Z,101020.00
2019-01-11T04:34:07.943Z,101021.00
2019-01-11T04:36:39.156Z,101018.00
2019-01-11T04:39:10.184Z,101014.00
2019-01-11T04:41:41.197Z,101020.00
2019-01-11T04:44:12.229Z,101002.00
2019-01-11T04:46:43.148Z,100999.00
2019-01-11T04:49:14.210Z,101005.00
2019-01-11T04:51:45.250Z,100997.00
2019-01-11T04:54:16.196Z,100997.00
2019-01-11T04:56:47.186Z,100993.00
2019-01-11T04:59:18.073Z,100997.00
2019-01-11T05:01:49.048Z,101004.00
2019-01-11T05:04:20.030Z,101001.00
2019-01-11T05:06:54.253Z,100997.00
2019-01-11T05:09:25.235Z,100996.00
2019-01-11T05:11:56.324Z,100997.00
2019-01-11T05:14:33.412Z,100989.00
2019-01-11T05:17:04.638Z,100988.00
2019-01-11T05:19:38.774Z,100994.00
2019-01-11T05:22:20.916Z,101020.00
2019-01-11T05:24:53.616Z,100990.00
2019-01-11T05:27:42.062Z,100988.00
2019-01-11T05:30:17.403Z,100990.00
2019-01-11T05:32:48.669Z,100982.00
2019-01-11T05:35:19.819Z,100984.00
2019-01-11T05:37:51.002Z,100983.00
2019-01-11T05:40:22.118Z,100976.00
2019-01-11T05:42:59.669Z,100971.00
2019-01-11T05:45:30.881Z,100973.00
2019-01-11T05:48:02.006Z,100963.00
2019-01-11T05:50:33.564Z,100962.00
2019-01-11T05:53:06.051Z,100948.00
2019-01-11T05:55:49.391Z,100959.00
2019-01-11T05:58:37.795Z,100952.00
2019-01-11T06:01:09.153Z,100949.00
2019-01-11T06:03:43.169Z,100948.00
2019-01-11T06:06:14.406Z,100939.00
2019-01-11T06:08:47.360Z,100939.00
2019-01-11T06:11:20.223Z,100934.00
2019-01-11T06:13:52.686Z,100922.00
2019-01-11T06:16:23.983Z,100930.00
2019-01-11T06:18:55.538Z,100919.00
2019-01-11T06:21:26.636Z,100920.00
2019-01-11T06:23:57.845Z,100920.00
2019-01-11T06:26:28.982Z,100907.00
2019-01-11T06:28:59.986Z,100907.00
2019-01-11T06:31:31.205Z,100902.00
2019-01-11T06:34:02.199Z,100898.00
2019-01-11T06:36:33.311Z,100903.00
2019-01-11T06:39:06.511Z,100901.00
2019-01-11T06:41:45.523Z,100897.00
2019-01-11T06:44:16.439Z,100894.00
2019-01-11T06:46:47.393Z,100893.00
2019-01-11T06:49:18.374Z,100888.00
2019-01-11T06:51:49.336Z,100895.00
2019-01-11T06:54:20.298Z,100896.00
2019-01-11T06:56:52.441Z,100897.00
2019-01-11T06:59:23.455Z,100899.00
2019-01-11T07:01:55.725Z,100896.00
2019-01-11T07:04:26.777Z,100900.00
2019-01-11T07:06:58.040Z,100893.00
2019-01-11T07:09:30.853Z,100895.00
2019-01-11T07:12:01.939Z,100889.00
2019-01-11T07:14:34.159Z,100892.00
2019-01-11T07:17:06.459Z,100895.00
2019-01-11T07:19:38.595Z,100891.00
2019-01-11T07:22:09.683Z,100879.00
2019-01-11T07:25:04.129Z,100885.00
2019-01-11T07:28:30.001Z,100883.00
2019-01-11T07:31:08.971Z,100885.00
2019-01-11T07:33:59.976Z,100885.00
2019-01-11T07:36:42.117Z,100890.00
2019-01-11T07:39:35.295Z,100880.00
2019-01-11T07:42:11.991Z,100886.00
2019-01-11T07:44:42.863Z,100884.00
2019-01-11T07:47:14.031Z,100879.00
2019-01-11T07:49:45.502Z,100877.00
2019-01-11T07:52:19.785Z,100876.00
2019-01-11T07:54:50.640Z,100881.00
2019-01-11T07:57:22.611Z,100865.00
2019-01-11T07:59:55.567Z,100870.00
2019-01-11T08:02:26.900Z,100872.00
2019-01-11T08:05:03.554Z,100866.00
2019-01-11T08:07:34.821Z,100856.00
2019-01-11T08:10:07.181Z,100857.00
2019-01-11T08:12:39.414Z,100861.00
2019-01-11T08:15:11.360Z,100861.00
2019-01-11T08:17:42.693Z,100857.00
2019-01-11T08:20:14.292Z,100849.00
2019-01-11T08:22:45.415Z,100855.00
2019-01-11T08:25:17.243Z,100858.00
2019-01-11T08:27:55.306Z,100846.00
2019-01-11T08:30:34.111Z,100846.00
2019-01-11T08:33:07.637Z,100845.00
2019-01-11T08:36:21.081Z,100837.00
2019-01-11T08:39:08.916Z,100855.00
2019-01-11T08:41:39.913Z,100836.00
2019-01-11T08:47:06.842Z,100844.00
2019-01-11T08:49:39.117Z,100835.00
2019-01-11T08:52:09.975Z,100833.00
2019-01-11T08:54:43.182Z,100844.00
2019-01-11T08:57:16.678Z,100837.00
2019-01-11T08:59:49.327Z,100845.00
2019-01-11T09:02:20.680Z,100847.00
2019-01-11T09:04:52.021Z,100834.00
2019-01-11T09:07:23.506Z,100844.00
2019-01-11T09:09:54.804Z,100839.00
2019-01-11T09:12:26.040Z,100831.00
2019-01-11T09:14:56.952Z,100826.00
2019-01-11T09:17:28.130Z,100825.00
2019-01-11T09:20:01.792Z,100825.00
2019-01-11T09:22:33.023Z,100829.00
2019-01-11T09:25:04.402Z,100820.00
2019-01-11T09:31:24.608Z,100834.00
2019-01-11T09:33:56.272Z,100821.00
2019-01-11T09:36:29.975Z,100817.00
2019-01-11T09:39:01.196Z,100814.00
2019-01-11T09:41:38.188Z,100824.00
2019-01-11T09:44:09.359Z,100818.00
2019-01-11T09:46:40.360Z,100817.00
2019-01-11T09:49:12.700Z,100818.00
2019-01-11T09:52:00.672Z,100822.00
2019-01-11T09:54:37.322Z,100820.00
2019-01-11T09:57:24.330Z,100814.00
2019-01-11T09:59:58.490Z,100815.00
2019-01-11T10:02:38.741Z,100824.00
2019-01-11T10:05:11.536Z,100827.00
2019-01-11T10:07:47.668Z,100827.00
2019-01-11T10:10:26.954Z,100827.00
2019-01-11T10:13:04.215Z,100814.00
2019-01-11T10:15:35.866Z,100810.00
2019-01-11T10:18:07.141Z,100799.00
2019-01-11T10:20:38.950Z,100782.00
2019-01-11T10:23:17.724Z,100787.00
2019-01-11T10:25:52.193Z,100787.00
2019-01-11T10:28:30.446Z,100789.00
2019-01-11T10:31:03.435Z,100785.00
2019-01-11T10:33:36.313Z,100786.00
2019-01-11T10:36:07.724Z,100781.00
2019-01-11T10:38:38.959Z,100787.00
2019-01-11T10:41:10.247Z,100790.00
2019-01-11T10:43:41.511Z,100789.00
2019-01-11T10:46:29.840Z,100780.00
2019-01-11T10:49:01.475Z,100784.00
2019-01-11T10:51:32.612Z,100784.00
2019-01-11T10:54:04.200Z,100780.00
2019-01-11T10:56:35.694Z,100781.00
2019-01-11T10:59:07.125Z,100787.00
2019-01-11T11:01:47.340Z,100786.00
2019-01-11T11:04:18.453Z,100779.00
2019-01-11T11:06:49.473Z,100778.00
2019-01-11T11:09:20.674Z,100776.00
2019-01-11T11:11:51.761Z,100778.00
2019-01-11T11:14:22.912Z,100761.00
2019-01-11T11:16:54.050Z,100762.00
2019-01-11T11:19:25.161Z,100760.00
2019-01-11T11:21:56.040Z,100764.00
2019-01-11T11:24:27.336Z,100755.00
2019-01-11T11:27:06.053Z,100756.00
2019-01-11T11:29:42.525Z,100755.00
2019-01-11T11:32:16.776Z,100746.00
2019-01-11T11:34:51.686Z,100731.00
2019-01-11T11:37:24.791Z,100740.00
2019-01-11T11:39:55.749Z,100739.00
2019-01-11T11:42:27.276Z,100724.00
2019-01-11T11:44:58.493Z,100720.00
2019-01-11T11:47:29.448Z,100715.00
2019-01-11T11:50:00.584Z,100719.00
2019-01-11T11:52:33.276Z,100702.00
2019-01-11T11:55:23.818Z,100705.00
2019-01-11T11:58:07.276Z,100697.00
2019-01-11T12:00:38.737Z,100696.00
2019-01-11T12:03:10.824Z,100699.00
2019-01-11T12:05:41.794Z,100696.00
2019-01-11T12:08:12.959Z,100689.00
2019-01-11T12:10:44.011Z,100690.00
2019-01-11T12:13:16.375Z,100673.00
2019-01-11T12:15:48.015Z,100673.00
2019-01-11T12:18:19.705Z,100668.00
2019-01-11T12:20:55.767Z,100682.00
2019-01-11T12:23:27.153Z,100673.00
2019-01-11T12:26:03.397Z,100674.00
2019-01-11T12:28:36.325Z,100672.00
2019-01-11T12:31:09.168Z,100674.00
2019-01-11T12:33:40.453Z,100645.00
2019-01-11T12:36:11.515Z,100660.00
2019-01-11T12:38:42.433Z,100643.00
2019-01-11T12:41:13.508Z,100646.00
2019-01-11T12:43:44.567Z,100633.00
2019-01-11T12:46:16.387Z,100633.00
2019-01-11T12:48:47.338Z,100640.00
2019-01-11T12:51:18.479Z,100651.00
2019-01-11T12:53:51.678Z,100652.00
2019-01-11T12:56:22.921Z,100638.00
2019-01-11T12:58:54.160Z,100641.00
2019-01-11T13:01:25.849Z,100627.00
2019-01-11T13:04:00.811Z,100636.00
2019-01-11T13:06:35.471Z,100620.00
2019-01-11T13:09:10.173Z,100608.00
2019-01-11T13:11:41.931Z,100613.00
2019-01-11T13:14:13.309Z,100603.00
2019-01-11T13:16:44.581Z,100595.00
2019-01-11T13:19:15.667Z,100607.00
2019-01-11T13:21:46.918Z,100627.00
2019-01-11T13:24:18.062Z,100622.00
2019-01-11T13:26:52.516Z,100608.00
2019-01-11T13:29:24.733Z,100606.00
2019-01-11T13:31:56.453Z,100612.00
2019-01-11T13:34:27.748Z,100610.00
2019-01-11T13:36:59.071Z,100600.00
2019-01-11T13:39:30.307Z,100594.00
2019-01-11T13:42:01.948Z,100606.00
2019-01-11T13:44:33.010Z,100605.00
2019-01-11T13:47:07.099Z,100608.00
2019-01-11T13:49:38.411Z,100610.00
2019-01-11T13:52:09.960Z,100606.00
2019-01-11T13:54:41.587Z,100604.00
2019-01-11T13:57:12.635Z,100608.00
2019-01-11T13:59:43.724Z,100614.00
2019-01-11T14:02:15.005Z,100618.00
2019-01-11T14:04:46.226Z,100619.00
2019-01-11T14:07:18.478Z,100616.00
2019-01-11T14:09:49.392Z,100621.00
2019-01-11T14:12:20.307Z,100620.00
2019-01-11T14:14:56.377Z,100623.00
2019-01-11T14:17:29.798Z,100665.00
2019-01-11T14:20:01.786Z,100621.00
2019-01-11T14:22:33.043Z,100606.00
2019-01-11T14:25:04.670Z,100616.00
2019-01-11T14:27:37.811Z,100601.00
2019-01-11T14:30:14.930Z,100608.00
2019-01-11T14:32:46.571Z,100617.00
2019-01-11T14:35:17.588Z,100625.00
2019-01-11T14:37:48.512Z,100621.00
2019-01-11T14:40:19.516Z,100622.00
2019-01-11T14:42:50.848Z,100625.00
2019-01-11T14:45:22.014Z,100617.00
2019-01-11T14:47:53.232Z,100631.00
2019-01-11T14:50:43.268Z,100642.00
2019-01-11T14:53:14.510Z,100650.00
2019-01-11T14:56:16.746Z,100667.00
2019-01-11T14:58:56.678Z,100645.00
2019-01-11T15:01:27.659Z,100624.00
2019-01-11T15:03:58.748Z,100643.00
2019-01-11T15:06:33.299Z,100659.00
2019-01-11T15:09:06.886Z,100655.00
2019-01-11T15:11:38.057Z,100650.00
2019-01-11T15:14:11.194Z,100665.00
2019-01-11T15:16:42.200Z,100653.00
2019-01-11T15:19:14.093Z,100642.00
2019-01-11T15:21:46.424Z,100655.00
2019-01-11T15:24:20.480Z,100655.00
2019-01-11T15:26:51.746Z,100656.00
2019-01-11T15:29:22.900Z,100652.00
2019-01-11T15:31:54.076Z,100659.00
2019-01-11T15:34:25.007Z,100668.00
2019-01-11T15:36:56.176Z,100683.00
2019-01-11T15:39:27.317Z,100677.00
2019-01-11T15:41:58.301Z,100671.00
2019-01-11T15:44:29.460Z,100666.00
2019-01-11T15:47:00.496Z,100688.00
2019-01-11T15:49:31.704Z,100668.00
2019-01-11T15:52:02.696Z,100670.00
2019-01-11T15:54:34.674Z,100659.00
2019-01-11T15:57:05.915Z,100670.00
2019-01-11T16:00:00.628Z,100671.00
2019-01-11T16:02:31.566Z,100660.00
2019-01-11T16:05:02.655Z,100669.00
2019-01-11T16:07:33.631Z,100653.00
2019-01-11T16:10:21.160Z,100658.00
2019-01-11T16:13:27.114Z,100650.00
2019-01-11T16:16:40.158Z,100661.00
2019-01-11T16:19:11.067Z,100656.00
2019-01-11T16:21:41.964Z,100663.00
2019-01-11T16:24:12.986Z,100658.00
2019-01-11T16:26:44.158Z,100656.00
2019-01-11T16:29:15.056Z,100657.00
2019-01-11T16:31:46.160Z,100647.00
2019-01-11T16:34:17.230Z,100665.00
2019-01-11T16:36:48.327Z,100654.00
2019-01-11T16:39:19.303Z,100655.00
2019-01-11T16:41:50.453Z,100667.00
2019-01-11T16:44:21.522Z,100667.00
2019-01-11T16:46:52.509Z,100656.00
2019-01-11T16:49:23.548Z,100669.00
2019-01-11T16:51:54.546Z,100680.00
2019-01-11T16:54:25.722Z,100673.00
2019-01-11T16:56:56.649Z,100660.00
2019-01-11T16:59:27.795Z,100678.00
2019-01-11T17:01:58.734Z,100675.00
2019-01-11T17:04:29.688Z,100678.00
2019-01-11T17:07:08.767Z,100646.00
2019-01-11T17:09:40.391Z,100674.00
2019-01-11T17:12:11.360Z,100672.00
2019-01-11T17:14:42.543Z,100678.00
2019-01-11T17:17:13.659Z,100675.00
2019-01-11T17:19:45.976Z,100687.00
2019-01-11T17:22:21.618Z,100672.00
2019-01-11T17:24:56.123Z,100675.00
2019-01-11T17:27:27.543Z,100685.00
2019-01-11T17:30:03.825Z,100671.00
2019-01-11T17:32:35.549Z,100679.00
2019-01-11T17:35:08.481Z,100685.00
2019-01-11T17:37:41.705Z,100682.00
2019-01-11T17:40:15.433Z,100671.00
2019-01-11T17:42:47.395Z,100665.00
2019-01-11T17:45:18.576Z,100680.00
2019-01-11T17:47:51.871Z,100680.00
2019-01-11T17:50:23.333Z,100672.00
2019-01-11T17:52:59.807Z,100682.00
2019-01-11T17:55:27.785Z,100689.00
2019-01-11T17:57:58.895Z,100682.00
2019-01-11T18:00:32.079Z,100690.00
2019-01-11T18:03:15.939Z,100681.00
2019-01-11T18:05:48.779Z,100690.00
2019-01-11T18:08:30.163Z,100688.00
2019-01-11T18:11:15.052Z,100686.00
2019-01-11T18:13:46.485Z,100691.00
2019-01-11T18:16:18.301Z,100694.00
2019-01-11T18:18:51.822Z,100724.00
2019-01-11T18:21:22.965Z,100696.00
2019-01-11T18:23:54.077Z,100690.00
2019-01-11T18:26:25.522Z,100698.00
2019-01-11T18:28:57.077Z,100683.00
2019-01-11T18:31:28.272Z,100691.00
2019-01-11T18:33:59.444Z,100709.00
2019-01-11T18:36:31.894Z,100706.00
2019-01-11T18:39:04.395Z,100717.00
2019-01-11T18:41:35.851Z,100694.00
2019-01-11T18:44:07.159Z,100699.00
2019-01-11T18:46:38.146Z,100709.00
2019-01-11T18:49:09.205Z,100711.00
2019-01-11T18:51:40.446Z,100714.00
2019-01-11T18:54:11.744Z,100716.00
2019-01-11T18:56:43.509Z,100721.00
2019-01-11T18:59:15.642Z,100721.00
2019-01-11T19:01:47.346Z,100714.00
2019-01-11T19:04:18.593Z,100729.00
2019-01-11T19:06:49.643Z,100717.00
2019-01-11T19:09:29.280Z,100729.00
2019-01-11T19:12:05.228Z,100722.00
2019-01-11T19:14:36.386Z,100733.00
2019-01-11T19:17:07.559Z,100730.00
2019-01-11T19:19:38.727Z,100745.00
2019-01-11T19:22:09.840Z,100731.00
2019-01-11T19:24:40.789Z,100749.00
2019-01-11T19:27:12.074Z,100728.00
2019-01-11T19:29:43.534Z,100764.00
2019-01-11T19:32:14.665Z,100738.00
2019-01-11T19:34:45.863Z,100751.00
2019-01-11T19:37:17.532Z,100742.00
2019-01-11T19:39:48.647Z,100741.00
2019-01-11T19:42:19.678Z,100744.00
2019-01-11T19:44:50.676Z,100744.00
2019-01-11T19:47:22.720Z,100742.00
2019-01-11T19:49:53.755Z,100742.00
2019-01-11T19:52:25.002Z,100753.00
2019-01-11T19:54:57.716Z,100732.00
2019-01-11T19:57:28.936Z,100745.00
2019-01-11T20:00:00.256Z,100754.00
2019-01-11T20:02:31.589Z,100749.00
2019-01-11T20:05:03.629Z,100754.00
2019-01-11T20:07:35.636Z,100758.00
2019-01-11T20:10:10.045Z,100748.00
2019-01-11T20:12:42.675Z,100748.00
2019-01-11T20:15:14.311Z,100761.00
2019-01-11T20:17:45.795Z,100764.00
2019-01-11T20:20:17.289Z,100771.00
2019-01-11T20:22:48.625Z,100760.00
2019-01-11T20:25:23.481Z,100763.00
2019-01-11T20:27:54.700Z,100769.00
2019-01-11T20:30:28.298Z,100783.00
2019-01-11T20:32:59.566Z,100779.00
2019-01-11T20:35:33.524Z,100774.00
2019-01-11T20:38:04.969Z,100781.00
2019-01-11T20:40:37.180Z,100786.00
2019-01-11T20:43:10.423Z,100785.00
2019-01-11T20:45:42.380Z,100782.00
2019-01-11T20:48:14.308Z,100788.00
2019-01-11T20:50:46.202Z,100779.00
2019-01-11T20:53:18.545Z,100799.00
2019-01-11T20:55:50.059Z,100782.00
2019-01-11T20:58:21.536Z,100784.00
2019-01-11T21:00:52.713Z,100778.00
2019-01-11T21:03:23.678Z,100786.00
2019-01-11T21:05:54.961Z,100785.00
2019-01-11T21:08:26.198Z,100790.00
2019-01-11T21:10:57.404Z,100791.00
2019-01-11T21:13:28.491Z,100777.00
2019-01-11T21:15:59.729Z,100796.00
2019-01-11T21:18:30.865Z,100798.00
2019-01-11T21:21:01.952Z,100793.00
2019-01-11T21:23:33.105Z,100806.00
2019-01-11T21:26:04.376Z,100797.00
2019-01-11T21:28:35.523Z,100798.00
2019-01-11T21:31:06.852Z,100800.00
2019-01-11T21:33:38.019Z,100793.00
2019-01-11T21:36:09.279Z,100802.00
2019-01-11T21:38:40.285Z,100796.00
2019-01-11T21:41:11.316Z,100797.00
2019-01-11T21:43:43.247Z,100802.00
2019-01-11T21:46:14.564Z,100802.00
2019-01-11T21:48:47.065Z,100797.00
2019-01-11T21:51:18.329Z,100791.00
2019-01-11T21:53:55.690Z,100790.00
2019-01-11T21:56:43.024Z,100789.00
2019-01-11T21:59:14.215Z,100797.00
2019-01-11T22:01:45.241Z,100796.00
2019-01-11T22:04:16.358Z,100798.00
2019-01-11T22:06:47.398Z,100791.00
2019-01-11T22:09:18.625Z,100787.00
2019-01-11T22:11:49.619Z,100786.00
2019-01-11T22:14:21.938Z,100788.00
2019-01-11T22:16:53.246Z,100789.00
2019-01-11T22:19:24.598Z,100783.00
2019-01-11T22:21:55.895Z,100776.00
2019-01-11T22:24:29.335Z,100781.00
2019-01-11T22:27:00.817Z,100785.00
2019-01-11T22:29:32.402Z,100788.00
2019-01-11T22:32:04.639Z,100796.00
2019-01-11T22:34:35.693Z,100794.00
2019-01-11T22:37:06.836Z,100804.00
2019-01-11T22:39:37.767Z,100787.00
2019-01-11T22:42:08.963Z,100788.00
2019-01-11T22:44:39.983Z,100784.00
2019-01-11T22:47:10.952Z,100792.00
2019-01-11T22:49:41.886Z,100798.00
2019-01-11T22:52:12.925Z,100788.00
2019-01-11T22:54:45.252Z,100796.00
2019-01-11T22:57:16.293Z,100797.00
2019-01-11T22:59:47.261Z,100791.00
2019-01-11T23:02:46.175Z,100784.00
2019-01-11T23:05:17.659Z,100769.00
2019-01-11T23:07:59.959Z,100782.00
2019-01-11T23:11:46.868Z,100789.00
2019-01-11T23:14:17.999Z,100783.00
2019-01-11T23:17:10.939Z,100770.00
2019-01-11T23:19:42.362Z,100772.00
2019-01-11T23:22:13.262Z,100779.00
2019-01-11T23:24:44.555Z,100781.00
2019-01-11T23:27:15.603Z,100777.00
2019-01-11T23:29:46.642Z,100781.00
2019-01-11T23:32:17.828Z,100775.00
2019-01-11T23:34:49.046Z,100787.00
2019-01-11T23:37:20.046Z,100792.00
2019-01-11T23:39:51.278Z,100782.00
2019-01-11T23:42:23.981Z,100795.00
2019-01-11T23:44:56.971Z,100784.00
2019-01-11T23:47:28.108Z,100789.00
2019-01-11T23:50:03.811Z,100779.00
2019-01-11T23:52:36.560Z,100781.00
2019-01-11T23:55:08.941Z,100788.00
2019-01-11T23:57:40.387Z,100788.00
